Terminal Aerodrome Forecast
Issued by NWS Sioux Falls, SD

Home | Current Version | Previous Version | Graphics & Text | Print | Product List | Glossary On
Versions: 1 2 3 4 5 6 7 8 9 10 11 12 13 14 15 16
000
FTUS43 KFSD 292320
TAFHON
TAF
KHON 292320Z 3000/3024 30011KT P6SM SKC
     FM300300 20005KT P6SM SCT070 SCT150
     FM301500 26009KT P6SM SCT120
     FM301700 31019G27KT P6SM SCT060=

USA.gov is the U.S. government's official web portal to all federal, state and local government web resources and services.